sensor_id;sensor_type;location;lat;lon;timestamp;pressure;altitude;pressure_sealevel;temperature;humidity
21644;BME280;10983;51.982;9.226;2022-09-12T00:02:29;65387.91;;;-139.23;100.00
21644;BME280;10983;51.982;9.226;2022-09-12T00:05:55;65387.91;;;-139.23;100.00
21644;BME280;10983;51.982;9.226;2022-09-12T00:08:35;65387.91;;;-139.23;100.00
21644;BME280;10983;51.982;9.226;2022-09-12T00:11:48;65387.91;;;-139.23;100.00
21644;BME280;10983;51.982;9.226;2022-09-12T00:15:10;65387.91;;;-139.23;100.00
21644;BME280;10983;51.982;9.226;2022-09-12T00:18:37;65387.91;;;-139.23;100.00
21644;BME280;10983;51.982;9.226;2022-09-12T00:22:03;65387.91;;;-139.23;100.00
21644;BME280;10983;51.982;9.226;2022-09-12T00:25:29;65387.91;;;-139.23;100.00
21644;BME280;10983;51.982;9.226;2022-09-12T00:28:55;65387.91;;;-139.23;100.00
21644;BME280;10983;51.982;9.226;2022-09-12T00:32:07;65387.91;;;-139.23;100.00
21644;BME280;10983;51.982;9.226;2022-09-12T00:35:05;65387.91;;;-139.23;100.00
21644;BME280;10983;51.982;9.226;2022-09-12T00:38:32;65387.91;;;-139.23;100.00
21644;BME280;10983;51.982;9.226;2022-09-12T00:41:37;65387.91;;;-139.23;100.00
21644;BME280;10983;51.982;9.226;2022-09-12T00:45:01;65387.91;;;-139.23;100.00
21644;BME280;10983;51.982;9.226;2022-09-12T00:48:30;65387.91;;;-139.23;100.00
21644;BME280;10983;51.982;9.226;2022-09-12T00:51:58;65387.91;;;-139.23;100.00
21644;BME280;10983;51.982;9.226;2022-09-12T00:54:48;65387.91;;;-139.23;100.00
21644;BME280;10983;51.982;9.226;2022-09-12T00:58:10;65387.91;;;-139.23;100.00
21644;BME280;10983;51.982;9.226;2022-09-12T01:05:07;65387.91;;;-139.23;100.00
21644;BME280;10983;51.982;9.226;2022-09-12T01:08:35;65387.91;;;-139.23;100.00
21644;BME280;10983;51.982;9.226;2022-09-12T01:11:50;65387.91;;;-139.23;100.00
21644;BME280;10983;51.982;9.226;2022-09-12T01:15:18;65387.91;;;-139.23;100.00
21644;BME280;10983;51.982;9.226;2022-09-12T01:18:08;65387.91;;;-139.23;100.00
21644;BME280;10983;51.982;9.226;2022-09-12T01:21:09;65387.91;;;-139.23;100.00
21644;BME280;10983;51.982;9.226;2022-09-12T01:25:09;65387.91;;;-139.23;100.00
21644;BME280;10983;51.982;9.226;2022-09-12T01:28:16;65387.91;;;-139.23;100.00
21644;BME280;10983;51.982;9.226;2022-09-12T01:31:02;65387.91;;;-139.23;100.00
21644;BME280;10983;51.982;9.226;2022-09-12T01:33:45;65387.91;;;-139.23;100.00
21644;BME280;10983;51.982;9.226;2022-09-12T01:37:30;65387.91;;;-139.23;100.00
21644;BME280;10983;51.982;9.226;2022-09-12T01:41:08;65387.91;;;-139.23;100.00
21644;BME280;10983;51.982;9.226;2022-09-12T01:44:44;65387.91;;;-139.23;100.00
21644;BME280;10983;51.982;9.226;2022-09-12T01:48:18;65387.91;;;-139.23;100.00
21644;BME280;10983;51.982;9.226;2022-09-12T01:51:50;65387.91;;;-139.23;100.00
21644;BME280;10983;51.982;9.226;2022-09-12T01:55:24;65387.91;;;-139.23;100.00
21644;BME280;10983;51.982;9.226;2022-09-12T01:58:53;65387.91;;;-139.23;100.00
21644;BME280;10983;51.982;9.226;2022-09-12T02:02:26;65387.91;;;-139.23;100.00
21644;BME280;10983;51.982;9.226;2022-09-12T02:05:56;65387.91;;;-139.23;100.00
21644;BME280;10983;51.982;9.226;2022-09-12T02:09:01;65387.91;;;-139.23;100.00
21644;BME280;10983;51.982;9.226;2022-09-12T02:12:30;65387.91;;;-139.23;100.00
21644;BME280;10983;51.982;9.226;2022-09-12T02:15:22;65387.91;;;-139.23;100.00
21644;BME280;10983;51.982;9.226;2022-09-12T02:18:36;65387.91;;;-139.23;100.00
21644;BME280;10983;51.982;9.226;2022-09-12T02:21:51;65387.91;;;-139.23;100.00
21644;BME280;10983;51.982;9.226;2022-09-12T02:25:20;65387.91;;;-139.23;100.00
21644;BME280;10983;51.982;9.226;2022-09-12T02:28:48;65387.91;;;-139.23;100.00
21644;BME280;10983;51.982;9.226;2022-09-12T02:32:20;65387.91;;;-139.23;100.00
21644;BME280;10983;51.982;9.226;2022-09-12T02:35:56;65387.91;;;-139.23;100.00
21644;BME280;10983;51.982;9.226;2022-09-12T02:39:25;65387.91;;;-139.23;100.00
21644;BME280;10983;51.982;9.226;2022-09-12T02:42:52;65387.91;;;-139.23;100.00
21644;BME280;10983;51.982;9.226;2022-09-12T02:46:19;65387.91;;;-139.23;100.00
21644;BME280;10983;51.982;9.226;2022-09-12T02:49:47;65387.91;;;-139.23;100.00
21644;BME280;10983;51.982;9.226;2022-09-12T02:53:14;65387.91;;;-139.23;100.00
21644;BME280;10983;51.982;9.226;2022-09-12T02:56:42;65387.91;;;-139.23;100.00
21644;BME280;10983;51.982;9.226;2022-09-12T03:00:10;65387.91;;;-139.23;100.00
21644;BME280;10983;51.982;9.226;2022-09-12T03:03:48;65387.91;;;-139.23;100.00
21644;BME280;10983;51.982;9.226;2022-09-12T03:07:27;65387.91;;;-139.23;100.00
21644;BME280;10983;51.982;9.226;2022-09-12T03:11:23;65387.91;;;-139.23;100.00
21644;BME280;10983;51.982;9.226;2022-09-12T03:15:10;65387.91;;;-139.23;100.00
21644;BME280;10983;51.982;9.226;2022-09-12T03:18:43;65387.91;;;-139.23;100.00
21644;BME280;10983;51.982;9.226;2022-09-12T03:22:20;65387.91;;;-139.23;100.00
21644;BME280;10983;51.982;9.226;2022-09-12T03:25:53;65387.91;;;-139.23;100.00
21644;BME280;10983;51.982;9.226;2022-09-12T03:29:22;65387.91;;;-139.23;100.00
21644;BME280;10983;51.982;9.226;2022-09-12T03:32:51;65387.91;;;-139.23;100.00
21644;BME280;10983;51.982;9.226;2022-09-12T03:36:19;65387.91;;;-139.23;100.00
21644;BME280;10983;51.982;9.226;2022-09-12T03:39:46;65387.91;;;-139.23;100.00
21644;BME280;10983;51.982;9.226;2022-09-12T03:43:13;65387.91;;;-139.23;100.00
21644;BME280;10983;51.982;9.226;2022-09-12T03:46:39;65387.91;;;-139.23;100.00
21644;BME280;10983;51.982;9.226;2022-09-12T03:50:06;65387.91;;;-139.23;100.00
21644;BME280;10983;51.982;9.226;2022-09-12T03:53:32;65387.91;;;-139.23;100.00
21644;BME280;10983;51.982;9.226;2022-09-12T03:57:02;65387.91;;;-139.23;100.00
21644;BME280;10983;51.982;9.226;2022-09-12T04:00:30;65387.91;;;-139.23;100.00
21644;BME280;10983;51.982;9.226;2022-09-12T04:03:56;65387.91;;;-139.23;100.00
21644;BME280;10983;51.982;9.226;2022-09-12T04:07:21;65387.91;;;-139.23;100.00
21644;BME280;10983;51.982;9.226;2022-09-12T04:10:47;65387.91;;;-139.23;100.00
21644;BME280;10983;51.982;9.226;2022-09-12T04:14:13;65387.91;;;-139.23;100.00
21644;BME280;10983;51.982;9.226;2022-09-12T04:17:03;65387.91;;;-139.23;100.00
21644;BME280;10983;51.982;9.226;2022-09-12T04:20:08;65387.91;;;-139.23;100.00
21644;BME280;10983;51.982;9.226;2022-09-12T04:23:34;65387.91;;;-139.23;100.00
21644;BME280;10983;51.982;9.226;2022-09-12T04:26:05;65387.91;;;-139.23;100.00
21644;BME280;10983;51.982;9.226;2022-09-12T04:29:31;65387.91;;;-139.23;100.00
21644;BME280;10983;51.982;9.226;2022-09-12T04:32:59;65387.91;;;-139.23;100.00
21644;BME280;10983;51.982;9.226;2022-09-12T04:36:01;65387.91;;;-139.23;100.00
21644;BME280;10983;51.982;9.226;2022-09-12T04:39:27;65387.91;;;-139.23;100.00
21644;BME280;10983;51.982;9.226;2022-09-12T04:42:53;65387.91;;;-139.23;100.00
21644;BME280;10983;51.982;9.226;2022-09-12T04:46:19;65387.91;;;-139.23;100.00
21644;BME280;10983;51.982;9.226;2022-09-12T04:49:47;65387.91;;;-139.23;100.00
21644;BME280;10983;51.982;9.226;2022-09-12T04:53:14;65387.91;;;-139.23;100.00
21644;BME280;10983;51.982;9.226;2022-09-12T04:56:41;65387.91;;;-139.23;100.00
21644;BME280;10983;51.982;9.226;2022-09-12T05:00:08;65387.91;;;-139.23;100.00
21644;BME280;10983;51.982;9.226;2022-09-12T05:03:38;65387.91;;;-139.23;100.00
21644;BME280;10983;51.982;9.226;2022-09-12T05:07:09;65387.91;;;-139.23;100.00
21644;BME280;10983;51.982;9.226;2022-09-12T05:10:35;65387.91;;;-139.23;100.00
21644;BME280;10983;51.982;9.226;2022-09-12T05:13:35;65387.91;;;-139.23;100.00
21644;BME280;10983;51.982;9.226;2022-09-12T05:16:04;65387.91;;;-139.23;100.00
21644;BME280;10983;51.982;9.226;2022-09-12T05:19:06;65387.91;;;-139.23;100.00
21644;BME280;10983;51.982;9.226;2022-09-12T05:21:36;65387.91;;;-139.23;100.00
21644;BME280;10983;51.982;9.226;2022-09-12T05:24:08;65387.91;;;-139.23;100.00
21644;BME280;10983;51.982;9.226;2022-09-12T05:26:38;65387.91;;;-139.23;100.00
21644;BME280;10983;51.982;9.226;2022-09-12T05:29:07;65387.91;;;-139.23;100.00
21644;BME280;10983;51.982;9.226;2022-09-12T05:31:37;65387.91;;;-139.23;100.00
21644;BME280;10983;51.982;9.226;2022-09-12T05:34:04;65387.91;;;-139.23;100.00
21644;BME280;10983;51.982;9.226;2022-09-12T05:36:36;65387.91;;;-139.23;100.00
21644;BME280;10983;51.982;9.226;2022-09-12T05:39:04;65387.91;;;-139.23;100.00
21644;BME280;10983;51.982;9.226;2022-09-12T05:41:32;65387.91;;;-139.23;100.00
21644;BME280;10983;51.982;9.226;2022-09-12T05:44:02;65387.91;;;-139.23;100.00
21644;BME280;10983;51.982;9.226;2022-09-12T05:46:35;65387.91;;;-139.23;100.00
21644;BME280;10983;51.982;9.226;2022-09-12T05:49:07;65387.91;;;-139.23;100.00
21644;BME280;10983;51.982;9.226;2022-09-12T05:52:36;65387.91;;;-139.23;100.00
21644;BME280;10983;51.982;9.226;2022-09-12T05:56:06;65387.91;;;-139.23;100.00
21644;BME280;10983;51.982;9.226;2022-09-12T05:59:34;65387.91;;;-139.23;100.00
21644;BME280;10983;51.982;9.226;2022-09-12T06:02:15;65387.91;;;-139.23;100.00
21644;BME280;10983;51.982;9.226;2022-09-12T06:05:41;65387.91;;;-139.23;100.00
21644;BME280;10983;51.982;9.226;2022-09-12T06:09:15;65387.91;;;-139.23;100.00
21644;BME280;10983;51.982;9.226;2022-09-12T06:12:42;65387.91;;;-139.23;100.00
21644;BME280;10983;51.982;9.226;2022-09-12T06:15:15;65387.91;;;-139.23;100.00
21644;BME280;10983;51.982;9.226;2022-09-12T06:18:45;65387.91;;;-139.23;100.00
21644;BME280;10983;51.982;9.226;2022-09-12T06:21:18;65387.91;;;-139.23;100.00
21644;BME280;10983;51.982;9.226;2022-09-12T06:24:45;65387.91;;;-139.23;100.00
21644;BME280;10983;51.982;9.226;2022-09-12T06:28:12;65387.91;;;-139.23;100.00
21644;BME280;10983;51.982;9.226;2022-09-12T06:31:38;65387.91;;;-139.23;100.00
21644;BME280;10983;51.982;9.226;2022-09-12T06:34:12;65387.91;;;-139.23;100.00
21644;BME280;10983;51.982;9.226;2022-09-12T06:37:08;65387.91;;;-139.23;100.00
21644;BME280;10983;51.982;9.226;2022-09-12T06:39:38;65387.91;;;-139.23;100.00
21644;BME280;10983;51.982;9.226;2022-09-12T06:42:07;65387.91;;;-139.23;100.00
21644;BME280;10983;51.982;9.226;2022-09-12T06:44:35;65387.91;;;-139.23;100.00
21644;BME280;10983;51.982;9.226;2022-09-12T06:47:04;65387.91;;;-139.23;100.00
21644;BME280;10983;51.982;9.226;2022-09-12T06:49:39;65387.91;;;-139.23;100.00
21644;BME280;10983;51.982;9.226;2022-09-12T06:52:11;65387.91;;;-139.23;100.00
21644;BME280;10983;51.982;9.226;2022-09-12T06:54:40;65387.91;;;-139.23;100.00
21644;BME280;10983;51.982;9.226;2022-09-12T06:58:07;65387.91;;;-139.23;100.00
21644;BME280;10983;51.982;9.226;2022-09-12T07:01:33;65387.91;;;-139.23;100.00
21644;BME280;10983;51.982;9.226;2022-09-12T07:05:00;65387.91;;;-139.23;100.00
21644;BME280;10983;51.982;9.226;2022-09-12T07:08:25;65387.91;;;-139.23;100.00
21644;BME280;10983;51.982;9.226;2022-09-12T07:11:56;65387.91;;;-139.23;100.00
21644;BME280;10983;51.982;9.226;2022-09-12T07:15:22;65387.91;;;-139.23;100.00
21644;BME280;10983;51.982;9.226;2022-09-12T07:18:48;65387.91;;;-139.23;100.00
21644;BME280;10983;51.982;9.226;2022-09-12T07:22:16;65387.91;;;-139.23;100.00
21644;BME280;10983;51.982;9.226;2022-09-12T07:25:42;65387.91;;;-139.23;100.00
21644;BME280;10983;51.982;9.226;2022-09-12T07:29:12;65387.91;;;-139.23;100.00
21644;BME280;10983;51.982;9.226;2022-09-12T07:32:59;65387.91;;;-139.23;100.00
21644;BME280;10983;51.982;9.226;2022-09-12T07:36:25;65387.91;;;-139.23;100.00
21644;BME280;10983;51.982;9.226;2022-09-12T07:39:51;65387.91;;;-139.23;100.00
21644;BME280;10983;51.982;9.226;2022-09-12T07:43:19;65387.91;;;-139.23;100.00
21644;BME280;10983;51.982;9.226;2022-09-12T07:46:45;65387.91;;;-139.23;100.00
21644;BME280;10983;51.982;9.226;2022-09-12T07:50:11;65387.91;;;-139.23;100.00
21644;BME280;10983;51.982;9.226;2022-09-12T07:53:37;65387.91;;;-139.23;100.00
21644;BME280;10983;51.982;9.226;2022-09-12T07:57:04;65387.91;;;-139.23;100.00
21644;BME280;10983;51.982;9.226;2022-09-12T08:00:31;65387.91;;;-139.23;100.00
21644;BME280;10983;51.982;9.226;2022-09-12T08:04:00;65387.91;;;-139.23;100.00
21644;BME280;10983;51.982;9.226;2022-09-12T08:07:27;65387.91;;;-139.23;100.00
21644;BME280;10983;51.982;9.226;2022-09-12T08:10:55;65387.91;;;-139.23;100.00
21644;BME280;10983;51.982;9.226;2022-09-12T08:14:21;65387.91;;;-139.23;100.00
21644;BME280;10983;51.982;9.226;2022-09-12T08:17:50;65387.91;;;-139.23;100.00
21644;BME280;10983;51.982;9.226;2022-09-12T08:21:17;65387.91;;;-139.23;100.00
21644;BME280;10983;51.982;9.226;2022-09-12T08:24:43;65387.91;;;-139.23;100.00
21644;BME280;10983;51.982;9.226;2022-09-12T08:28:09;65387.91;;;-139.23;100.00
21644;BME280;10983;51.982;9.226;2022-09-12T08:31:36;65387.91;;;-139.23;100.00
21644;BME280;10983;51.982;9.226;2022-09-12T08:35:04;65387.91;;;-139.23;100.00
21644;BME280;10983;51.982;9.226;2022-09-12T08:38:30;65387.91;;;-139.23;100.00
21644;BME280;10983;51.982;9.226;2022-09-12T08:42:01;65387.91;;;-139.23;100.00
21644;BME280;10983;51.982;9.226;2022-09-12T08:45:39;65387.91;;;-139.23;100.00
21644;BME280;10983;51.982;9.226;2022-09-12T08:49:11;65387.91;;;-139.23;100.00
21644;BME280;10983;51.982;9.226;2022-09-12T08:52:40;65387.91;;;-139.23;100.00
21644;BME280;10983;51.982;9.226;2022-09-12T08:56:20;65387.91;;;-139.23;100.00
21644;BME280;10983;51.982;9.226;2022-09-12T08:59:46;65387.91;;;-139.23;100.00
21644;BME280;10983;51.982;9.226;2022-09-12T09:03:29;65387.91;;;-139.23;100.00
21644;BME280;10983;51.982;9.226;2022-09-12T09:07:05;65387.91;;;-139.23;100.00
21644;BME280;10983;51.982;9.226;2022-09-12T09:10:46;65387.91;;;-139.23;100.00
21644;BME280;10983;51.982;9.226;2022-09-12T09:14:25;65387.91;;;-139.23;100.00
21644;BME280;10983;51.982;9.226;2022-09-12T09:18:18;65387.91;;;-139.23;100.00
21644;BME280;10983;51.982;9.226;2022-09-12T09:21:49;65387.91;;;-139.23;100.00
21644;BME280;10983;51.982;9.226;2022-09-12T09:25:22;65387.91;;;-139.23;100.00
21644;BME280;10983;51.982;9.226;2022-09-12T09:28:55;65387.91;;;-139.23;100.00
21644;BME280;10983;51.982;9.226;2022-09-12T09:32:24;65387.91;;;-139.23;100.00
21644;BME280;10983;51.982;9.226;2022-09-12T09:35:54;65387.91;;;-139.23;100.00
21644;BME280;10983;51.982;9.226;2022-09-12T09:39:30;65387.91;;;-139.23;100.00
21644;BME280;10983;51.982;9.226;2022-09-12T09:43:15;65387.91;;;-139.23;100.00
21644;BME280;10983;51.982;9.226;2022-09-12T09:46:46;65387.91;;;-139.23;100.00
21644;BME280;10983;51.982;9.226;2022-09-12T09:50:14;65387.91;;;-139.23;100.00
21644;BME280;10983;51.982;9.226;2022-09-12T09:53:44;65387.91;;;-139.23;100.00
21644;BME280;10983;51.982;9.226;2022-09-12T09:57:36;65387.91;;;-139.23;100.00
21644;BME280;10983;51.982;9.226;2022-09-12T10:01:17;65387.91;;;-139.23;100.00
21644;BME280;10983;51.982;9.226;2022-09-12T10:04:51;65387.91;;;-139.23;100.00
21644;BME280;10983;51.982;9.226;2022-09-12T10:08:19;65387.91;;;-139.23;100.00
21644;BME280;10983;51.982;9.226;2022-09-12T10:11:52;65387.91;;;-139.23;100.00
21644;BME280;10983;51.982;9.226;2022-09-12T10:15:39;65387.91;;;-139.23;100.00
21644;BME280;10983;51.982;9.226;2022-09-12T10:19:34;65387.91;;;-139.23;100.00
21644;BME280;10983;51.982;9.226;2022-09-12T10:23:03;65387.91;;;-139.23;100.00
21644;BME280;10983;51.982;9.226;2022-09-12T10:25:40;65387.91;;;-139.23;100.00
21644;BME280;10983;51.982;9.226;2022-09-12T10:29:19;65387.91;;;-139.23;100.00
21644;BME280;10983;51.982;9.226;2022-09-12T10:32:49;65387.91;;;-139.23;100.00
21644;BME280;10983;51.982;9.226;2022-09-12T10:36:17;65387.91;;;-139.23;100.00
21644;BME280;10983;51.982;9.226;2022-09-12T10:38:54;65387.91;;;-139.23;100.00
21644;BME280;10983;51.982;9.226;2022-09-12T10:45:03;65387.91;;;-139.23;100.00
21644;BME280;10983;51.982;9.226;2022-09-12T10:47:52;65387.91;;;-139.23;100.00
21644;BME280;10983;51.982;9.226;2022-09-12T10:50:39;65387.91;;;-139.23;100.00
21644;BME280;10983;51.982;9.226;2022-09-12T10:53:17;65387.91;;;-139.23;100.00
21644;BME280;10983;51.982;9.226;2022-09-12T10:56:01;65387.91;;;-139.23;100.00
21644;BME280;10983;51.982;9.226;2022-09-12T11:03:14;65387.91;;;-139.23;100.00
21644;BME280;10983;51.982;9.226;2022-09-12T11:06:10;65387.91;;;-139.23;100.00
21644;BME280;10983;51.982;9.226;2022-09-12T11:09:43;65387.91;;;-139.23;100.00
21644;BME280;10983;51.982;9.226;2022-09-12T11:12:40;65387.91;;;-139.23;100.00
21644;BME280;10983;51.982;9.226;2022-09-12T11:16:22;65387.91;;;-139.23;100.00
21644;BME280;10983;51.982;9.226;2022-09-12T11:20:11;65387.91;;;-139.23;100.00
21644;BME280;10983;51.982;9.226;2022-09-12T11:23:09;65387.91;;;-139.23;100.00
21644;BME280;10983;51.982;9.226;2022-09-12T11:25:51;65387.91;;;-139.23;100.00
21644;BME280;10983;51.982;9.226;2022-09-12T11:28:42;65387.91;;;-139.23;100.00
21644;BME280;10983;51.982;9.226;2022-09-12T11:32:45;65387.91;;;-139.23;100.00
21644;BME280;10983;51.982;9.226;2022-09-12T11:35:46;65387.91;;;-139.23;100.00
21644;BME280;10983;51.982;9.226;2022-09-12T11:39:25;65387.91;;;-139.23;100.00
21644;BME280;10983;51.982;9.226;2022-09-12T11:42:02;65387.91;;;-139.23;100.00
21644;BME280;10983;51.982;9.226;2022-09-12T11:44:38;65387.91;;;-139.23;100.00
21644;BME280;10983;51.982;9.226;2022-09-12T11:47:13;65387.91;;;-139.23;100.00
21644;BME280;10983;51.982;9.226;2022-09-12T11:49:45;65387.91;;;-139.23;100.00
21644;BME280;10983;51.982;9.226;2022-09-12T11:52:32;65387.91;;;-139.23;100.00
21644;BME280;10983;51.982;9.226;2022-09-12T11:55:09;65387.91;;;-139.23;100.00
21644;BME280;10983;51.982;9.226;2022-09-12T11:57:40;65387.91;;;-139.23;100.00
21644;BME280;10983;51.982;9.226;2022-09-12T12:00:24;65387.91;;;-139.23;100.00
21644;BME280;10983;51.982;9.226;2022-09-12T12:03:08;65387.91;;;-139.23;100.00
21644;BME280;10983;51.982;9.226;2022-09-12T12:05:45;65387.91;;;-139.23;100.00
21644;BME280;10983;51.982;9.226;2022-09-12T12:08:57;65387.91;;;-139.23;100.00
21644;BME280;10983;51.982;9.226;2022-09-12T12:11:28;65387.91;;;-139.23;100.00
21644;BME280;10983;51.982;9.226;2022-09-12T12:13:58;65387.91;;;-139.23;100.00
21644;BME280;10983;51.982;9.226;2022-09-12T12:16:31;65387.91;;;-139.23;100.00
21644;BME280;10983;51.982;9.226;2022-09-12T12:19:02;100357.78;;;24.78;100.00
21644;BME280;10983;51.982;9.226;2022-09-12T12:21:40;100342.69;;;25.08;100.00
21644;BME280;10983;51.982;9.226;2022-09-12T12:24:15;100327.06;;;25.34;100.00
21644;BME280;10983;51.982;9.226;2022-09-12T12:26:54;100312.47;;;25.61;100.00
21644;BME280;10983;51.982;9.226;2022-09-12T12:29:51;100299.16;;;25.99;100.00
21644;BME280;10983;51.982;9.226;2022-09-12T12:32:24;100287.56;;;26.28;100.00
21644;BME280;10983;51.982;9.226;2022-09-12T12:35:02;100275.34;;;26.59;100.00
21644;BME280;10983;51.982;9.226;2022-09-12T12:37:54;100266.31;;;26.97;100.00
21644;BME280;10983;51.982;9.226;2022-09-12T12:40:27;100256.94;;;27.15;100.00
21644;BME280;10983;51.982;9.226;2022-09-12T12:43:01;100246.69;;;27.34;100.00
21644;BME280;10983;51.982;9.226;2022-09-12T12:48:48;100228.03;;;27.73;100.00
21644;BME280;10983;51.982;9.226;2022-09-12T12:54:47;100210.53;;;28.21;100.00
21644;BME280;10983;51.982;9.226;2022-09-12T12:57:34;100205.53;;;28.50;100.00
21644;BME280;10983;51.982;9.226;2022-09-12T13:00:07;100200.81;;;28.73;100.00
21644;BME280;10983;51.982;9.226;2022-09-12T13:02:56;100195.03;;;28.97;100.00
21644;BME280;10983;51.982;9.226;2022-09-12T13:05:26;100190.13;;;29.23;100.00
21644;BME280;10983;51.982;9.226;2022-09-12T13:08:01;100187.75;;;29.53;100.00
21644;BME280;10983;51.982;9.226;2022-09-12T13:10:30;100186.59;;;29.85;100.00
21644;BME280;10983;51.982;9.226;2022-09-12T13:13:02;100186.03;;;30.22;100.00
21644;BME280;10983;51.982;9.226;2022-09-12T13:15:50;100184.81;;;30.54;100.00
21644;BME280;10983;51.982;9.226;2022-09-12T13:18:23;100184.50;;;30.91;100.00
21644;BME280;10983;51.982;9.226;2022-09-12T13:20:59;100183.53;;;31.23;100.00
21644;BME280;10983;51.982;9.226;2022-09-12T13:23:31;100182.47;;;31.55;100.00
21644;BME280;10983;51.982;9.226;2022-09-12T13:25:59;100181.59;;;31.80;100.00
21644;BME280;10983;51.982;9.226;2022-09-12T13:28:29;100179.91;;;32.01;100.00
21644;BME280;10983;51.982;9.226;2022-09-12T13:30:59;100179.00;;;32.27;100.00
21644;BME280;10983;51.982;9.226;2022-09-12T13:33:41;100176.81;;;32.48;100.00
21644;BME280;10983;51.982;9.226;2022-09-12T13:36:24;100175.78;;;32.65;100.00
21644;BME280;10983;51.982;9.226;2022-09-12T13:39:06;100174.25;;;32.82;100.00
21644;BME280;10983;51.982;9.226;2022-09-12T13:41:57;100173.00;;;32.97;100.00
21644;BME280;10983;51.982;9.226;2022-09-12T13:44:31;100171.56;;;33.12;100.00
21644;BME280;10983;51.982;9.226;2022-09-12T13:47:04;100171.09;;;33.31;100.00
21644;BME280;10983;51.982;9.226;2022-09-12T13:49:35;100170.31;;;33.53;100.00
21644;BME280;10983;51.982;9.226;2022-09-12T13:52:05;100168.84;;;33.74;100.00
21644;BME280;10983;51.982;9.226;2022-09-12T13:54:34;100167.91;;;33.98;100.00
21644;BME280;10983;51.982;9.226;2022-09-12T13:57:04;100166.03;;;34.12;100.00
21644;BME280;10983;51.982;9.226;2022-09-12T13:59:38;100164.44;;;34.28;100.00
21644;BME280;10983;51.982;9.226;2022-09-12T14:02:17;100162.38;;;34.37;100.00
21644;BME280;10983;51.982;9.226;2022-09-12T14:04:46;100160.38;;;34.40;100.00
21644;BME280;10983;51.982;9.226;2022-09-12T14:07:32;100158.63;;;34.35;100.00
21644;BME280;10983;51.982;9.226;2022-09-12T14:10:00;100156.19;;;34.31;100.00
21644;BME280;10983;51.982;9.226;2022-09-12T14:12:33;100154.09;;;34.34;100.00
21644;BME280;10983;51.982;9.226;2022-09-12T14:15:04;100152.69;;;34.43;100.00
21644;BME280;10983;51.982;9.226;2022-09-12T14:17:34;100151.19;;;34.49;100.00
21644;BME280;10983;51.982;9.226;2022-09-12T14:20:05;100149.78;;;34.53;100.00
21644;BME280;10983;51.982;9.226;2022-09-12T14:22:34;100148.50;;;34.52;100.00
21644;BME280;10983;51.982;9.226;2022-09-12T14:25:05;100146.16;;;34.52;100.00
21644;BME280;10983;51.982;9.226;2022-09-12T14:27:40;100144.22;;;34.57;100.00
21644;BME280;10983;51.982;9.226;2022-09-12T14:30:25;100142.34;;;34.50;100.00
21644;BME280;10983;51.982;9.226;2022-09-12T14:33:04;100139.56;;;34.45;100.00
21644;BME280;10983;51.982;9.226;2022-09-12T14:35:41;100137.00;;;34.42;100.00
21644;BME280;10983;51.982;9.226;2022-09-12T14:38:20;100133.50;;;34.40;100.00
21644;BME280;10983;51.982;9.226;2022-09-12T14:40:50;100130.59;;;34.45;100.00
21644;BME280;10983;51.982;9.226;2022-09-12T14:43:23;100128.63;;;34.44;100.00
21644;BME280;10983;51.982;9.226;2022-09-12T14:45:54;100126.38;;;34.47;100.00
21644;BME280;10983;51.982;9.226;2022-09-12T14:48:26;100124.28;;;34.48;100.00
21644;BME280;10983;51.982;9.226;2022-09-12T14:50:54;100122.34;;;34.47;100.00
21644;BME280;10983;51.982;9.226;2022-09-12T14:53:25;100119.38;;;34.42;100.00
21644;BME280;10983;51.982;9.226;2022-09-12T14:56:03;100117.09;;;34.42;100.00
21644;BME280;10983;51.982;9.226;2022-09-12T14:58:32;100114.53;;;34.37;100.00
21644;BME280;10983;51.982;9.226;2022-09-12T15:01:19;100111.72;;;34.31;100.00
21644;BME280;10983;51.982;9.226;2022-09-12T15:03:53;100109.13;;;34.26;100.00
21644;BME280;10983;51.982;9.226;2022-09-12T15:06:25;100107.50;;;34.06;100.00
21644;BME280;10983;51.982;9.226;2022-09-12T15:08:54;100104.38;;;33.85;100.00
21644;BME280;10983;51.982;9.226;2022-09-12T15:11:22;100100.56;;;33.61;100.00
21644;BME280;10983;51.982;9.226;2022-09-12T15:13:50;100096.91;;;33.43;100.00
21644;BME280;10983;51.982;9.226;2022-09-12T15:16:19;100093.81;;;33.28;100.00
21644;BME280;10983;51.982;9.226;2022-09-12T15:18:47;100091.09;;;33.17;100.00
21644;BME280;10983;51.982;9.226;2022-09-12T15:21:16;100088.84;;;33.12;100.00
21644;BME280;10983;51.982;9.226;2022-09-12T15:23:46;100086.56;;;33.11;100.00
21644;BME280;10983;51.982;9.226;2022-09-12T15:26:17;100084.75;;;33.08;100.00
21644;BME280;10983;51.982;9.226;2022-09-12T15:28:45;100083.34;;;32.99;100.00
21644;BME280;10983;51.982;9.226;2022-09-12T15:31:19;100081.19;;;32.89;100.00
21644;BME280;10983;51.982;9.226;2022-09-12T15:33:50;100079.16;;;32.83;100.00
21644;BME280;10983;51.982;9.226;2022-09-12T15:36:19;100076.53;;;32.72;100.00
21644;BME280;10983;51.982;9.226;2022-09-12T15:38:49;100074.16;;;32.64;100.00
21644;BME280;10983;51.982;9.226;2022-09-12T15:41:18;100071.69;;;32.49;100.00
21644;BME280;10983;51.982;9.226;2022-09-12T15:43:47;100069.22;;;32.40;100.00
21644;BME280;10983;51.982;9.226;2022-09-12T15:46:16;100066.94;;;32.35;100.00
21644;BME280;10983;51.982;9.226;2022-09-12T15:48:44;100064.09;;;32.27;100.00
21644;BME280;10983;51.982;9.226;2022-09-12T15:51:17;100061.81;;;32.14;100.00
21644;BME280;10983;51.982;9.226;2022-09-12T15:53:46;100059.50;;;31.96;100.00
21644;BME280;10983;51.982;9.226;2022-09-12T15:56:14;100056.78;;;31.84;100.00
21644;BME280;10983;51.982;9.226;2022-09-12T15:58:42;100054.00;;;31.71;100.00